Time;durP1;ratioP1;P1;durP2;ratioP2;P2;SDS_P1;SDS_P2;PMS_P1;PMS_P2;Temp;Humidity;BMP_temperature;BMP_pressure;BME280_temperature;BME280_humidity;BME280_pressure;Samples;Min_cycle;Max_cycle;Signal;HPM_P1;HPM_P2
2022/12/23 00:00:56;;;;;;;171.70;51.97;;;7.50;99.90;;;;;;5060911;28;20033;-79
2022/12/23 00:03:22;;;;;;;78.30;38.00;;;7.50;99.90;;;;;;5061365;28;20045;-79
2022/12/23 00:05:48;;;;;;;90.40;42.13;;;7.50;99.90;;;;;;5069346;28;20049;-80
2022/12/23 00:08:14;;;;;;;104.33;43.83;;;7.50;99.90;;;;;;5060263;28;20036;-79
2022/12/23 00:10:40;;;;;;;85.47;41.20;;;7.50;99.90;;;;;;5058932;28;20047;-80
2022/12/23 00:16:09;;;;;;;97.67;43.40;;;7.50;99.90;;;;;;5058059;28;20045;-79
2022/12/23 00:18:35;;;;;;;133.43;55.03;;;7.50;99.90;;;;;;5059320;28;20041;-79
2022/12/23 00:21:07;;;;;;;166.03;51.40;;;7.50;99.90;;;;;;5059988;28;20090;-80
2022/12/23 00:23:35;;;;;;;114.57;46.22;;;7.50;99.90;;;;;;5056252;28;20076;-80
2022/12/23 00:26:01;;;;;;;78.10;37.27;;;7.50;99.90;;;;;;5058784;28;20067;-80
2022/12/23 00:28:28;;;;;;;81.20;38.77;;;7.50;99.90;;;;;;5056804;28;20044;-80
2022/12/23 00:31:02;;;;;;;110.87;44.53;;;7.50;99.90;;;;;;5065784;28;20082;-81
2022/12/23 00:33:33;;;;;;;138.27;45.77;;;7.50;99.90;;;;;;5057018;28;20068;-80
2022/12/23 00:35:59;;;;;;;124.30;46.67;;;7.50;99.90;;;;;;5060008;28;20051;-80
2022/12/23 00:43:58;;;;;;;119.67;42.93;;;7.50;99.90;;;;;;5057227;28;20041;-79
2022/12/23 00:46:23;;;;;;;92.30;39.23;;;7.50;99.90;;;;;;5058147;28;20044;-80
2022/12/23 00:51:33;;;;;;;83.23;37.40;;;7.50;99.90;;;;;;5061003;28;20339;-80
2022/12/23 00:53:59;;;;;;;249.10;61.90;;;7.50;99.90;;;;;;5058334;28;20037;-78
2022/12/23 00:56:25;;;;;;;112.47;41.60;;;7.50;99.90;;;;;;5058215;28;20114;-80
2022/12/23 00:58:50;;;;;;;76.40;36.83;;;7.50;99.90;;;;;;5040975;28;20051;-79
2022/12/23 01:06:46;;;;;;;118.80;46.77;;;7.50;99.90;;;;;;5057149;28;20049;-78
2022/12/23 01:09:11;;;;;;;92.00;37.50;;;7.50;99.90;;;;;;5059525;28;20044;-78
2022/12/23 01:11:37;;;;;;;179.30;46.70;;;7.50;99.90;;;;;;5060177;28;20455;-79
2022/12/23 01:14:03;;;;;;;102.33;39.50;;;7.50;99.90;;;;;;5058755;28;20083;-79
2022/12/23 01:16:29;;;;;;;171.73;50.63;;;7.50;99.90;;;;;;5057110;28;20123;-78
2022/12/23 01:18:54;;;;;;;314.30;61.80;;;7.50;99.90;;;;;;5061371;28;20052;-78
2022/12/23 01:21:20;;;;;;;94.60;39.60;;;7.50;99.90;;;;;;5057036;28;20048;-78
2022/12/23 01:23:46;;;;;;;222.13;53.53;;;7.50;99.90;;;;;;5056422;28;20117;-79
2022/12/23 01:26:11;;;;;;;100.67;40.23;;;7.50;99.90;;;;;;5057652;28;20075;-78
2022/12/23 01:28:37;;;;;;;108.37;41.03;;;7.50;99.90;;;;;;5057347;28;20552;-79
2022/12/23 01:31:06;;;;;;;354.80;68.93;;;7.50;99.90;;;;;;5058172;28;20045;-78
2022/12/23 01:33:32;;;;;;;222.57;56.27;;;7.50;99.90;;;;;;5056308;28;20077;-78
2022/12/23 01:35:59;;;;;;;137.77;47.63;;;7.50;99.90;;;;;;5058528;28;20085;-79
2022/12/23 01:38:25;;;;;;;86.73;38.93;;;7.50;99.90;;;;;;5056861;28;20076;-79
2022/12/23 01:40:51;;;;;;;106.70;41.40;;;7.50;99.90;;;;;;5059227;28;20047;-78
2022/12/23 01:43:18;;;;;;;91.47;40.53;;;7.50;99.90;;;;;;5054841;28;20048;-79
2022/12/23 01:45:44;;;;;;;90.80;40.73;;;7.50;99.90;;;;;;5057646;28;20032;-79
2022/12/23 01:48:23;;;;;;;222.83;61.40;;;7.50;99.90;;;;;;5058342;28;20057;-80
2022/12/23 01:50:54;;;;;;;111.87;45.63;;;7.50;99.90;;;;;;5056502;28;20495;-78
2022/12/23 01:53:42;;;;;;;134.00;45.97;;;7.50;99.90;;;;;;5056732;28;20048;-79
2022/12/23 01:56:13;;;;;;;79.97;36.47;;;7.50;99.90;;;;;;5055754;28;20048;-80
2022/12/23 01:58:47;;;;;;;173.47;52.23;;;7.50;99.90;;;;;;5055971;28;20067;-79
2022/12/23 02:04:03;;;;;;;96.57;38.13;;;7.50;99.90;;;;;;5060067;28;20044;-79
2022/12/23 02:09:22;;;;;;;68.63;33.90;;;7.50;99.90;;;;;;5066647;28;20067;-79
2022/12/23 02:12:06;;;;;;;125.70;42.47;;;7.50;99.90;;;;;;5058638;28;20069;-78
2022/12/23 02:18:17;;;;;;;88.23;37.10;;;7.50;99.90;;;;;;5059065;28;20037;-79
2022/12/23 02:20:53;;;;;;;89.37;36.47;;;7.50;99.90;;;;;;5055635;28;20079;-78
2022/12/23 02:23:57;;;;;;;193.00;49.57;;;7.50;99.90;;;;;;5036478;28;20053;-78
2022/12/23 02:26:55;;;;;;;77.33;35.87;;;7.50;99.90;;;;;;5057012;28;20053;-78
2022/12/23 02:29:59;;;;;;;106.43;42.50;;;7.50;99.90;;;;;;5056823;28;20128;-78
2022/12/23 02:32:55;;;;;;;325.50;59.17;;;7.50;99.90;;;;;;5059786;28;20053;-78
2022/12/23 02:35:36;;;;;;;165.10;41.20;;;7.50;99.90;;;;;;5052115;28;20041;-78
2022/12/23 02:38:20;;;;;;;75.07;34.50;;;7.50;99.90;;;;;;5057793;28;20049;-77
2022/12/23 02:41:04;;;;;;;268.03;55.27;;;7.50;99.90;;;;;;5061200;28;20075;-78
2022/12/23 02:43:48;;;;;;;133.23;41.63;;;7.50;99.90;;;;;;5059575;28;21050;-78
2022/12/23 02:46:31;;;;;;;78.53;32.10;;;7.50;99.90;;;;;;5058938;28;20049;-79
2022/12/23 02:49:07;;;;;;;129.70;41.10;;;7.50;99.90;;;;;;5058073;28;20049;-79
2022/12/23 02:51:41;;;;;;;83.23;32.83;;;7.50;99.90;;;;;;5063416;28;20045;-79
2022/12/23 02:54:10;;;;;;;92.33;35.30;;;7.50;99.90;;;;;;5055353;28;20049;-79
2022/12/23 02:56:41;;;;;;;112.83;37.70;;;7.50;99.90;;;;;;5055878;28;20488;-79
2022/12/23 02:59:14;;;;;;;132.73;39.43;;;7.50;99.90;;;;;;5045700;28;20339;-79
2022/12/23 03:01:41;;;;;;;149.50;43.97;;;7.50;99.90;;;;;;5063363;28;20091;-79
2022/12/23 03:04:07;;;;;;;106.97;38.93;;;7.50;99.90;;;;;;5055466;28;20049;-79
2022/12/23 03:06:43;;;;;;;81.47;33.53;;;7.50;99.90;;;;;;5053837;28;20056;-79
2022/12/23 03:09:28;;;;;;;123.03;37.97;;;7.50;99.90;;;;;;5070330;28;20112;-79
2022/12/23 03:12:16;;;;;;;88.07;33.50;;;7.50;99.90;;;;;;5055295;28;20076;-79
2022/12/23 03:14:47;;;;;;;115.53;37.47;;;7.50;99.90;;;;;;5055338;28;20045;-78
2022/12/23 03:17:38;;;;;;;87.22;31.88;;;7.50;99.90;;;;;;5056916;28;20049;-79
2022/12/23 03:20:27;;;;;;;113.28;36.92;;;7.50;99.90;;;;;;5064012;28;20044;-77
2022/12/23 03:23:16;;;;;;;99.90;32.83;;;7.50;99.90;;;;;;5055277;28;20041;-79
2022/12/23 03:25:54;;;;;;;92.23;33.67;;;7.50;99.90;;;;;;5056236;28;20049;-79
2022/12/23 03:28:32;;;;;;;135.43;37.50;;;7.50;99.90;;;;;;5039969;28;20528;-78
2022/12/23 03:31:00;;;;;;;124.23;35.33;;;7.50;99.90;;;;;;5054778;28;20048;-79
2022/12/23 03:33:35;;;;;;;182.47;41.67;;;7.50;99.90;;;;;;5038295;28;20112;-80
2022/12/23 03:36:26;;;;;;;144.03;38.20;;;7.50;99.90;;;;;;5060420;28;21008;-79
2022/12/23 03:38:54;;;;;;;188.13;42.90;;;7.50;99.90;;;;;;5057902;28;20045;-79
2022/12/23 03:41:29;;;;;;;190.97;41.60;;;7.50;99.90;;;;;;5063440;28;20077;-79
2022/12/23 03:44:00;;;;;;;159.53;38.23;;;7.50;99.90;;;;;;5067783;28;20512;-78
2022/12/23 03:46:56;;;;;;;109.47;32.83;;;7.50;99.90;;;;;;5060185;28;20056;-78
2022/12/23 03:49:30;;;;;;;136.60;36.23;;;7.50;99.90;;;;;;5060975;28;20056;-79
2022/12/23 03:52:05;;;;;;;124.53;36.97;;;7.40;99.90;;;;;;5059337;28;20084;-78
2022/12/23 03:54:41;;;;;;;119.27;37.00;;;7.40;99.90;;;;;;5057870;28;20144;-78
2022/12/23 03:57:09;;;;;;;113.60;35.30;;;7.50;99.90;;;;;;5058870;28;20060;-79
2022/12/23 03:59:40;;;;;;;88.83;31.63;;;7.50;99.90;;;;;;5056001;28;20396;-80
2022/12/23 04:02:46;;;;;;;85.15;29.42;;;7.50;99.90;;;;;;5061072;28;20048;-78
2022/12/23 04:05:34;;;;;;;137.73;36.60;;;7.50;99.90;;;;;;5015238;28;20037;-77
2022/12/23 04:08:18;;;;;;;85.97;30.50;;;7.50;99.90;;;;;;5015190;28;20376;-78
2022/12/23 04:10:44;;;;;;;110.43;32.83;;;7.50;99.90;;;;;;5037570;28;20118;-78
2022/12/23 04:13:11;;;;;;;97.33;31.10;;;7.50;99.90;;;;;;5059884;28;20164;-78
2022/12/23 04:15:41;;;;;;;82.57;28.27;;;7.50;99.90;;;;;;5057022;28;20053;-79
2022/12/23 04:18:08;;;;;;;89.70;29.90;;;7.50;99.90;;;;;;5058271;28;20207;-79
2022/12/23 04:20:35;;;;;;;127.83;35.03;;;7.50;99.90;;;;;;5060094;28;20037;-78
2022/12/23 04:23:01;;;;;;;92.40;31.50;;;7.50;99.90;;;;;;5060769;28;20076;-78
2022/12/23 04:25:27;;;;;;;107.60;32.67;;;7.60;99.90;;;;;;5058369;28;20133;-78
2022/12/23 04:27:52;;;;;;;120.93;33.07;;;7.50;99.90;;;;;;5040175;28;20045;-78
2022/12/23 04:30:18;;;;;;;77.53;28.20;;;7.50;99.90;;;;;;5059233;28;20056;-78
2022/12/23 04:32:44;;;;;;;77.57;28.37;;;7.50;99.90;;;;;;5057552;28;20048;-78
2022/12/23 04:35:10;;;;;;;75.80;28.10;;;7.50;99.90;;;;;;5060094;28;20052;-78
2022/12/23 04:37:37;;;;;;;67.67;27.10;;;7.50;99.90;;;;;;5060406;28;20045;-78
2022/12/23 04:40:04;;;;;;;68.83;24.87;;;7.50;99.90;;;;;;5065874;28;20060;-78
2022/12/23 04:42:30;;;;;;;93.23;29.87;;;7.50;99.90;;;;;;5062625;28;20083;-78
2022/12/23 04:44:55;;;;;;;76.07;26.53;;;7.50;99.90;;;;;;5061717;28;20040;-78
2022/12/23 04:47:21;;;;;;;96.30;29.17;;;7.40;99.90;;;;;;5054722;28;20056;-78
2022/12/23 04:49:47;;;;;;;76.33;27.17;;;7.50;99.90;;;;;;5057459;28;20040;-78
2022/12/23 04:52:13;;;;;;;86.53;27.20;;;7.50;99.90;;;;;;5057898;28;20052;-78
2022/12/23 04:54:39;;;;;;;64.60;24.40;;;7.50;99.90;;;;;;5058373;28;20056;-78
2022/12/23 04:57:04;;;;;;;70.53;26.10;;;7.50;99.90;;;;;;5061137;28;20064;-77
2022/12/23 04:59:30;;;;;;;80.13;29.80;;;7.50;99.90;;;;;;5057664;28;20045;-79
2022/12/23 05:01:56;;;;;;;80.57;27.17;;;7.40;99.90;;;;;;5055609;28;20048;-79
2022/12/23 05:04:23;;;;;;;72.17;26.63;;;7.50;99.90;;;;;;5057654;28;20049;-79
2022/12/23 05:06:48;;;;;;;96.40;29.90;;;7.50;99.90;;;;;;5059841;28;20052;-79
2022/12/23 05:09:14;;;;;;;126.33;35.00;;;7.40;99.90;;;;;;5063348;28;20049;-79
2022/12/23 05:11:40;;;;;;;123.87;32.50;;;7.40;99.90;;;;;;5057095;28;20041;-78
2022/12/23 05:14:05;;;;;;;80.23;28.73;;;7.40;99.90;;;;;;5057890;28;20066;-79
2022/12/23 05:16:31;;;;;;;91.17;27.87;;;7.40;99.90;;;;;;5056091;28;20049;-79
2022/12/23 05:18:57;;;;;;;61.93;25.03;;;7.40;99.90;;;;;;5058373;28;20135;-78
2022/12/23 05:21:23;;;;;;;103.27;34.43;;;7.40;99.90;;;;;;5057372;28;20085;-79
2022/12/23 05:23:48;;;;;;;82.17;30.17;;;7.40;99.90;;;;;;5040664;28;20088;-79
2022/12/23 05:26:14;;;;;;;71.03;27.47;;;7.40;99.90;;;;;;5057915;28;20047;-79
2022/12/23 05:28:41;;;;;;;125.47;34.57;;;7.40;99.90;;;;;;5057789;28;20041;-79
2022/12/23 05:31:07;;;;;;;102.40;33.13;;;7.40;99.90;;;;;;5055844;28;20056;-80
2022/12/23 05:33:34;;;;;;;106.80;33.90;;;7.40;99.90;;;;;;5059386;28;20264;-79
2022/12/23 05:36:00;;;;;;;87.53;30.43;;;7.30;99.90;;;;;;5058797;28;20059;-78
2022/12/23 05:38:26;;;;;;;82.83;30.13;;;7.40;99.90;;;;;;5040884;28;20055;-78
2022/12/23 05:40:52;;;;;;;159.90;40.40;;;7.30;99.90;;;;;;5053215;28;20044;-78
2022/12/23 05:43:18;;;;;;;121.97;33.87;;;7.40;99.90;;;;;;5060600;28;20049;-78
2022/12/23 05:45:44;;;;;;;98.23;32.53;;;7.30;99.90;;;;;;5057330;28;20097;-78
2022/12/23 05:48:10;;;;;;;88.80;29.43;;;7.40;99.90;;;;;;5057469;28;20403;-79
2022/12/23 05:50:37;;;;;;;87.33;30.87;;;7.30;99.90;;;;;;5054810;28;20032;-78
2022/12/23 05:53:03;;;;;;;85.63;29.67;;;7.30;99.90;;;;;;5056650;28;20562;-78
2022/12/23 05:55:29;;;;;;;102.17;33.77;;;7.30;99.90;;;;;;5060050;28;20119;-78
2022/12/23 05:57:55;;;;;;;108.30;33.50;;;7.30;99.90;;;;;;5054194;28;20056;-79
2022/12/23 06:00:21;;;;;;;120.67;34.97;;;7.30;99.90;;;;;;5058063;28;20057;-78
2022/12/23 06:02:46;;;;;;;196.33;41.70;;;7.30;99.90;;;;;;5058127;28;20044;-79
2022/12/23 06:05:13;;;;;;;145.77;33.67;;;7.30;99.90;;;;;;5056301;28;20512;-79
2022/12/23 06:07:39;;;;;;;89.00;26.17;;;7.20;99.90;;;;;;5054803;28;20037;-86
2022/12/23 06:10:06;;;;;;;195.87;40.13;;;7.20;99.90;;;;;;5056049;28;20055;-85
2022/12/23 06:12:32;;;;;;;190.57;40.13;;;7.20;99.90;;;;;;5038943;28;20139;-84
2022/12/23 06:14:58;;;;;;;86.17;28.23;;;7.10;99.90;;;;;;5056919;28;20080;-84
2022/12/23 06:17:24;;;;;;;106.17;28.80;;;7.10;99.90;;;;;;5056619;28;20108;-84
2022/12/23 06:19:50;;;;;;;113.50;30.20;;;7.10;99.90;;;;;;5055590;28;20049;-85
2022/12/23 06:22:16;;;;;;;81.60;27.00;;;7.10;99.90;;;;;;5060017;28;20044;-85
2022/12/23 06:24:43;;;;;;;76.07;25.90;;;7.10;99.90;;;;;;5059276;28;20045;-83
2022/12/23 06:27:08;;;;;;;126.23;31.33;;;7.10;99.90;;;;;;5057416;28;20037;-84
2022/12/23 06:29:34;;;;;;;93.80;28.57;;;7.20;99.90;;;;;;5056368;28;20043;-84
2022/12/23 06:32:00;;;;;;;220.83;39.70;;;7.10;99.90;;;;;;5059325;28;20049;-85
2022/12/23 06:34:25;;;;;;;225.93;40.13;;;7.20;99.90;;;;;;5057305;28;20045;-84
2022/12/23 06:36:51;;;;;;;119.20;29.73;;;7.20;99.90;;;;;;5057874;28;20079;-83
2022/12/23 06:39:17;;;;;;;322.50;45.87;;;7.20;99.90;;;;;;5056539;28;20053;-83
2022/12/23 06:41:42;;;;;;;281.60;39.20;;;7.20;99.90;;;;;;5060825;28;20580;-84
2022/12/23 06:44:09;;;;;;;426.67;54.90;;;7.10;99.90;;;;;;5055786;28;20128;-85
2022/12/23 06:46:34;;;;;;;228.90;32.43;;;7.20;99.90;;;;;;5055977;28;20055;-83
2022/12/23 06:49:00;;;;;;;270.07;38.00;;;7.10;99.90;;;;;;5067658;28;20120;-85
2022/12/23 06:51:26;;;;;;;336.73;43.40;;;7.10;99.90;;;;;;5059870;28;20063;-84
2022/12/23 06:53:52;;;;;;;223.13;35.77;;;7.10;99.90;;;;;;5054988;28;20084;-83
2022/12/23 06:56:18;;;;;;;122.67;26.17;;;7.10;99.90;;;;;;5055611;28;20060;-84
2022/12/23 06:58:43;;;;;;;163.27;28.60;;;7.10;99.90;;;;;;5058265;28;20049;-84
2022/12/23 07:01:10;;;;;;;131.13;25.47;;;7.10;99.90;;;;;;5039522;28;20065;-85
2022/12/23 07:03:35;;;;;;;261.17;36.20;;;7.10;99.90;;;;;;5056605;28;20080;-84
2022/12/23 07:06:02;;;;;;;104.37;24.73;;;7.10;99.90;;;;;;5056349;28;20048;-84
2022/12/23 07:08:28;;;;;;;108.37;24.00;;;7.10;99.90;;;;;;5066374;28;20045;-84
2022/12/23 07:11:02;;;;;;;188.53;30.87;;;7.10;99.90;;;;;;5065895;28;20043;-84
2022/12/23 07:13:28;;;;;;;225.10;33.33;;;7.10;99.90;;;;;;5062305;28;20049;-84
2022/12/23 07:15:54;;;;;;;248.87;33.90;;;7.10;99.90;;;;;;5058865;28;20116;-84
2022/12/23 07:18:24;;;;;;;122.87;25.03;;;7.10;99.90;;;;;;5060757;28;20049;-84
2022/12/23 07:20:50;;;;;;;174.53;29.77;;;7.10;99.90;;;;;;5062391;28;20073;-83
2022/12/23 07:23:16;;;;;;;206.50;30.27;;;7.10;99.90;;;;;;5061891;28;20044;-83
2022/12/23 07:25:43;;;;;;;351.73;44.00;;;7.00;99.90;;;;;;5060397;28;20055;-82
2022/12/23 07:28:08;;;;;;;181.77;27.87;;;7.00;99.90;;;;;;5058771;28;20044;-83
2022/12/23 07:30:35;;;;;;;72.77;20.83;;;7.10;99.90;;;;;;5063659;28;20067;-83
2022/12/23 07:33:01;;;;;;;148.83;26.50;;;7.00;99.90;;;;;;5059581;28;20099;-82
2022/12/23 07:35:27;;;;;;;236.13;34.30;;;7.00;99.90;;;;;;5060497;28;20832;-83
2022/12/23 07:37:54;;;;;;;127.60;23.40;;;7.00;99.90;;;;;;5057711;28;20510;-83
2022/12/23 07:40:21;;;;;;;79.10;20.37;;;7.10;99.90;;;;;;5057258;28;20056;-83
2022/12/23 07:42:54;;;;;;;87.03;20.83;;;7.10;99.90;;;;;;5066514;28;20045;-79
2022/12/23 07:45:20;;;;;;;134.33;23.50;;;7.10;99.90;;;;;;5057915;28;20052;-81
2022/12/23 07:47:46;;;;;;;130.63;22.70;;;7.10;99.90;;;;;;5062082;28;20040;-80
2022/12/23 07:50:12;;;;;;;97.50;20.63;;;7.10;99.90;;;;;;5061486;28;20056;-76
2022/12/23 07:52:38;;;;;;;139.40;22.87;;;7.10;99.90;;;;;;5059854;28;20033;-78
2022/12/23 07:55:05;;;;;;;183.47;27.73;;;7.10;99.90;;;;;;5058321;28;20033;-77
2022/12/23 07:57:36;;;;;;;146.10;23.30;;;7.00;99.90;;;;;;5061245;28;20107;-77
2022/12/23 08:00:07;;;;;;;159.27;24.95;;;7.10;99.90;;;;;;5072989;28;20044;-76
2022/12/23 08:02:33;;;;;;;146.00;22.77;;;7.10;99.90;;;;;;5060793;28;20039;-76
2022/12/23 08:04:58;;;;;;;274.53;33.43;;;7.10;99.90;;;;;;5070254;28;20045;-77
2022/12/23 08:07:24;;;;;;;159.33;24.43;;;7.00;99.90;;;;;;5069318;28;20044;-76
2022/12/23 08:09:50;;;;;;;119.23;22.13;;;7.00;99.90;;;;;;5075692;28;20068;-76
2022/12/23 08:12:15;;;;;;;75.67;17.90;;;7.00;99.90;;;;;;5049222;28;20047;-76
2022/12/23 08:14:41;;;;;;;113.10;21.73;;;7.10;99.90;;;;;;5071945;28;20134;-76
2022/12/23 08:17:07;;;;;;;101.27;20.90;;;7.10;99.90;;;;;;5064231;28;20044;-76
2022/12/23 08:19:33;;;;;;;115.93;21.97;;;7.10;99.90;;;;;;5062273;28;20041;-76
2022/12/23 08:21:58;;;;;;;106.17;21.70;;;7.10;99.90;;;;;;5058228;28;20118;-76
2022/12/23 08:24:24;;;;;;;65.73;18.17;;;7.10;99.90;;;;;;5057797;28;20069;-76
2022/12/23 08:26:50;;;;;;;94.53;21.27;;;7.10;99.90;;;;;;5064089;28;20605;-76
2022/12/23 08:29:15;;;;;;;62.53;18.30;;;7.10;99.90;;;;;;5056164;28;20106;-76
2022/12/23 08:31:41;;;;;;;176.77;26.47;;;7.10;99.90;;;;;;5062060;28;20466;-76
2022/12/23 08:34:07;;;;;;;109.97;21.70;;;7.20;99.90;;;;;;5055284;28;20135;-76
2022/12/23 08:36:34;;;;;;;103.27;21.57;;;7.10;99.90;;;;;;5057783;28;20424;-77
2022/12/23 08:39:03;;;;;;;52.73;16.33;;;7.20;99.90;;;;;;5055212;28;20045;-76
2022/12/23 08:41:34;;;;;;;79.63;18.87;;;7.20;99.90;;;;;;5055791;28;20106;-74
2022/12/23 08:44:00;;;;;;;80.53;21.60;;;7.20;99.90;;;;;;5056843;28;20064;-75
2022/12/23 08:46:26;;;;;;;74.43;20.13;;;7.20;99.90;;;;;;5057424;28;20060;-76
2022/12/23 08:48:52;;;;;;;82.03;21.77;;;7.20;99.90;;;;;;5038620;28;20056;-76
2022/12/23 08:51:22;;;;;;;105.77;23.17;;;7.20;99.90;;;;;;5055803;28;20044;-76
2022/12/23 08:53:49;;;;;;;79.60;20.07;;;7.20;99.90;;;;;;5056079;28;20047;-76
2022/12/23 08:56:22;;;;;;;55.23;17.83;;;7.20;99.90;;;;;;5065779;28;20071;-76
2022/12/23 08:58:51;;;;;;;123.17;23.83;;;7.20;99.90;;;;;;5069117;28;20528;-76
2022/12/23 09:01:19;;;;;;;77.07;19.07;;;7.20;99.90;;;;;;5066358;28;20052;-77
2022/12/23 09:03:45;;;;;;;111.53;23.17;;;7.20;99.90;;;;;;5069005;28;20047;-76
2022/12/23 09:06:17;;;;;;;53.33;16.87;;;7.20;99.90;;;;;;5071813;28;20048;-77
2022/12/23 09:08:43;;;;;;;44.40;15.70;;;7.30;99.90;;;;;;5063478;28;20102;-76
2022/12/23 09:11:10;;;;;;;54.83;17.43;;;7.30;99.90;;;;;;5052631;28;20033;-76
2022/12/23 09:13:36;;;;;;;58.13;17.87;;;7.30;99.90;;;;;;5067515;28;20102;-75
2022/12/23 09:16:02;;;;;;;44.17;16.03;;;7.40;99.90;;;;;;5075762;28;20044;-75
2022/12/23 09:18:28;;;;;;;44.73;17.00;;;7.40;99.90;;;;;;5066094;28;20135;-74
2022/12/23 09:21:05;;;;;;;30.60;14.80;;;7.40;99.90;;;;;;5071723;28;20082;-75
2022/12/23 09:23:31;;;;;;;44.53;15.73;;;7.40;99.90;;;;;;5065060;28;20048;-75
2022/12/23 09:25:57;;;;;;;45.33;16.37;;;7.40;99.90;;;;;;5069385;28;20045;-75
2022/12/23 09:28:23;;;;;;;35.53;14.90;;;7.40;99.90;;;;;;5058593;28;20040;-74
2022/12/23 09:30:50;;;;;;;29.73;13.37;;;7.40;99.90;;;;;;5064292;28;20056;-75
2022/12/23 09:33:16;;;;;;;33.50;13.77;;;7.50;99.90;;;;;;5069682;28;20083;-74
2022/12/23 09:35:42;;;;;;;35.40;15.43;;;7.50;99.90;;;;;;5077274;28;20119;-75
2022/12/23 09:38:07;;;;;;;31.93;14.20;;;7.40;99.90;;;;;;5059620;28;20534;-76
2022/12/23 09:40:36;;;;;;;34.43;13.83;;;7.50;99.90;;;;;;5072866;28;20086;-74
2022/12/23 09:43:32;;;;;;;39.23;15.60;;;7.50;99.90;;;;;;5076443;28;20043;-75
2022/12/23 09:46:13;;;;;;;52.23;17.67;;;7.50;99.90;;;;;;5069226;28;20057;-75
2022/12/23 09:48:46;;;;;;;41.23;15.43;;;7.50;99.90;;;;;;5070842;28;20041;-75
2022/12/23 09:51:14;;;;;;;25.07;12.60;;;7.50;99.90;;;;;;5065992;28;20033;-74
2022/12/23 09:54:02;;;;;;;33.57;14.30;;;7.50;99.90;;;;;;5074541;28;20530;-75
2022/12/23 09:57:03;;;;;;;28.47;13.73;;;7.60;99.90;;;;;;5075461;28;20064;-75
2022/12/23 10:00:03;;;;;;;35.27;15.43;;;7.60;99.90;;;;;;5062537;28;20048;-75
2022/12/23 10:02:29;;;;;;;35.30;15.53;;;7.60;99.90;;;;;;5061539;28;20102;-76
2022/12/23 10:05:12;;;;;;;37.93;14.70;;;7.70;99.90;;;;;;5073671;28;20800;-74
2022/12/23 10:07:47;;;;;;;28.33;14.60;;;7.70;99.90;;;;;;5069768;28;20056;-75
2022/12/23 10:10:30;;;;;;;35.13;14.87;;;7.70;99.90;;;;;;5062948;28;20052;-75
2022/12/23 10:12:58;;;;;;;32.73;15.37;;;7.70;99.90;;;;;;5066212;28;20053;-75
2022/12/23 10:15:40;;;;;;;30.03;14.10;;;7.70;99.90;;;;;;5066721;28;20044;-75
2022/12/23 10:18:24;;;;;;;33.33;15.50;;;7.70;99.90;;;;;;5062638;28;20037;-76
2022/12/23 10:21:00;;;;;;;36.40;16.23;;;7.80;99.90;;;;;;5063507;28;20826;-76
2022/12/23 10:23:37;;;;;;;30.30;14.87;;;7.70;99.90;;;;;;5066410;28;20048;-76
2022/12/23 10:26:16;;;;;;;30.67;15.13;;;7.80;99.90;;;;;;5062025;28;20066;-75
2022/12/23 10:28:41;;;;;;;20.30;11.33;;;7.80;99.90;;;;;;5069030;28;20045;-77
2022/12/23 10:31:23;;;;;;;23.33;12.87;;;7.80;99.90;;;;;;5079452;28;20045;-78
2022/12/23 10:34:25;;;;;;;23.27;11.90;;;7.90;99.90;;;;;;5080704;28;20068;-77
2022/12/23 10:37:03;;;;;;;34.20;19.90;;;7.90;99.90;;;;;;5068290;28;20108;-76
2022/12/23 10:39:51;;;;;;;23.77;11.97;;;7.90;99.90;;;;;;5068133;28;20083;-79
2022/12/23 10:42:17;;;;;;;24.57;12.10;;;8.00;99.90;;;;;;5075265;28;20041;-77
2022/12/23 10:44:46;;;;;;;28.60;12.93;;;8.00;99.90;;;;;;5073277;28;20545;-77
2022/12/23 10:47:20;;;;;;;30.70;14.50;;;8.00;99.90;;;;;;5078486;28;20044;-79
2022/12/23 10:50:31;;;;;;;27.17;13.00;;;8.00;99.90;;;;;;5067690;28;20044;-78
2022/12/23 10:53:01;;;;;;;23.30;12.20;;;8.00;99.90;;;;;;5049364;28;20063;-79
2022/12/23 10:55:32;;;;;;;22.53;12.37;;;8.00;99.90;;;;;;5076840;28;20067;-79
2022/12/23 10:58:23;;;;;;;18.53;10.80;;;8.00;99.90;;;;;;5067492;28;20057;-79
2022/12/23 11:00:57;;;;;;;18.90;11.20;;;8.10;99.90;;;;;;5067611;28;20056;-79
2022/12/23 11:03:29;;;;;;;25.23;12.10;;;8.10;99.90;;;;;;5073266;28;20084;-79
2022/12/23 11:05:57;;;;;;;21.93;11.70;;;8.10;99.90;;;;;;5079740;28;20048;-80
2022/12/23 11:08:25;;;;;;;20.70;11.23;;;8.10;99.90;;;;;;5073219;28;20080;-79
2022/12/23 11:10:51;;;;;;;25.40;12.57;;;8.10;99.90;;;;;;5068828;28;20403;-79
2022/12/23 11:13:32;;;;;;;24.57;11.83;;;8.20;99.90;;;;;;5073594;28;20128;-79
2022/12/23 11:16:21;;;;;;;21.35;11.00;;;8.20;99.90;;;;;;5063740;28;20072;-79
2022/12/23 11:19:05;;;;;;;21.20;11.17;;;8.20;99.90;;;;;;5064618;28;20040;-79
2022/12/23 11:21:32;;;;;;;20.37;11.30;;;8.10;99.90;;;;;;5069969;28;20037;-79
2022/12/23 11:24:20;;;;;;;24.27;11.27;;;8.10;99.90;;;;;;5072889;28;20052;-78
2022/12/23 11:27:02;;;;;;;26.23;16.67;;;8.10;99.90;;;;;;5067508;28;20044;-79
2022/12/23 11:29:34;;;;;;;29.17;15.27;;;8.10;99.90;;;;;;5062767;28;20453;-79
2022/12/23 11:32:01;;;;;;;23.50;13.07;;;8.10;99.90;;;;;;5071570;28;20052;-80
2022/12/23 11:34:35;;;;;;;25.47;13.37;;;8.10;99.90;;;;;;5067803;28;20071;-79
2022/12/23 11:37:01;;;;;;;21.10;11.83;;;8.10;99.90;;;;;;5069796;28;20075;-79
2022/12/23 11:39:33;;;;;;;29.37;13.20;;;8.10;99.90;;;;;;5070715;28;20048;-79
2022/12/23 11:42:14;;;;;;;24.63;12.93;;;8.20;99.90;;;;;;5068324;28;20056;-79
2022/12/23 11:44:44;;;;;;;33.33;13.70;;;8.10;99.90;;;;;;5060296;28;20638;-81
2022/12/23 11:47:36;;;;;;;27.43;13.87;;;8.20;99.90;;;;;;5073911;28;20044;-80
2022/12/23 11:50:22;;;;;;;29.40;12.82;;;8.20;99.90;;;;;;5077928;28;20746;-79
2022/12/23 11:53:00;;;;;;;30.40;14.87;;;8.20;99.90;;;;;;5062243;28;20094;-79
2022/12/23 11:55:31;;;;;;;37.27;19.07;;;8.10;99.90;;;;;;5066354;28;20067;-80
2022/12/23 11:57:59;;;;;;;35.93;19.63;;;8.10;99.90;;;;;;5069453;28;20618;-79
2022/12/23 12:00:33;;;;;;;39.80;18.07;;;8.10;99.90;;;;;;5074374;28;20036;-79
2022/12/23 12:03:02;;;;;;;35.87;18.70;;;8.20;99.90;;;;;;5071425;28;20055;-79
2022/12/23 12:05:37;;;;;;;33.90;17.60;;;8.10;99.90;;;;;;5064732;28;20420;-79
2022/12/23 12:08:08;;;;;;;44.00;21.13;;;8.20;99.90;;;;;;5075772;28;20521;-79
2022/12/23 12:10:36;;;;;;;52.00;25.77;;;8.10;99.90;;;;;;5063631;28;20071;-78
2022/12/23 12:13:20;;;;;;;43.13;22.00;;;8.20;99.90;;;;;;5069451;28;20056;-79
2022/12/23 12:15:55;;;;;;;38.03;17.97;;;8.20;99.90;;;;;;5069367;28;20041;-78
2022/12/23 12:18:21;;;;;;;36.83;17.37;;;8.20;99.90;;;;;;5073280;28;20104;-79
2022/12/23 12:20:59;;;;;;;30.47;15.87;;;8.20;99.90;;;;;;5078097;28;20090;-79
2022/12/23 12:23:55;;;;;;;31.53;16.07;;;8.30;99.90;;;;;;5068359;28;20041;-79
2022/12/23 12:26:31;;;;;;;30.63;17.17;;;8.20;99.90;;;;;;5073979;28;20055;-79
2022/12/23 12:29:12;;;;;;;31.17;17.13;;;8.30;99.90;;;;;;5074255;28;20108;-79
2022/12/23 12:31:41;;;;;;;36.73;18.93;;;8.30;99.90;;;;;;5048644;28;20044;-80
2022/12/23 12:34:35;;;;;;;31.37;14.87;;;8.30;99.90;;;;;;5072710;28;20071;-78
2022/12/23 12:37:42;;;;;;;35.80;17.13;;;8.30;99.90;;;;;;5074271;28;20487;-79
2022/12/23 12:40:19;;;;;;;35.87;18.13;;;8.30;99.90;;;;;;5038168;28;20056;-79
2022/12/23 12:43:05;;;;;;;27.03;14.03;;;8.30;99.90;;;;;;5075179;28;20113;-79
2022/12/23 12:45:38;;;;;;;32.03;16.53;;;8.30;99.90;;;;;;5067428;28;20538;-79
2022/12/23 12:48:23;;;;;;;35.27;16.27;;;8.30;99.90;;;;;;5066080;28;20124;-79
2022/12/23 12:51:09;;;;;;;33.10;15.63;;;8.30;99.90;;;;;;5052448;28;20052;-79
2022/12/23 12:53:39;;;;;;;33.23;17.07;;;8.30;99.90;;;;;;5065944;28;20424;-79
2022/12/23 12:56:18;;;;;;;52.27;26.17;;;8.30;99.90;;;;;;5045294;28;20053;-79
2022/12/23 12:58:44;;;;;;;64.90;32.67;;;8.30;99.90;;;;;;5073032;28;20044;-79
2022/12/23 13:01:28;;;;;;;62.27;32.07;;;8.30;99.90;;;;;;5075834;28;20095;-79
2022/12/23 13:04:23;;;;;;;44.13;23.23;;;8.30;99.90;;;;;;5072251;28;20120;-79
2022/12/23 13:07:11;;;;;;;33.23;18.00;;;8.30;99.90;;;;;;5075441;28;20483;-79
2022/12/23 13:09:52;;;;;;;27.80;14.60;;;8.30;99.90;;;;;;5072111;28;20120;-79
2022/12/23 13:12:31;;;;;;;32.80;17.07;;;8.20;99.90;;;;;;5075601;28;20506;-79
2022/12/23 13:15:50;;;;;;;34.50;17.30;;;8.30;99.90;;;;;;5075554;28;20095;-79
2022/12/23 13:18:46;;;;;;;33.37;16.67;;;8.20;99.90;;;;;;5030207;28;20452;-79
2022/12/23 13:21:34;;;;;;;35.80;16.73;;;8.20;99.90;;;;;;5073075;28;20123;-79
2022/12/23 13:24:15;;;;;;;35.97;18.87;;;8.20;99.90;;;;;;5062983;28;20045;-79